Coastal Inspiration — CFN4970 — position and weather

sailwx.info

Track history (hours):
 
Tides and Currents Weather Stations Pressure Air Temp Water Temp Dewpoint Dewpoint Depression Visibility Wind Speed Wind Dir Waves Ship Positions

Coastal Inspiration

Last reported at 2014-Oct-25 13:22 UTC. Time now 2014-Oct-25 14:29 UTC.
Position N 49°10' W 123°53'.

Length 160 m; draft 6 m.

Type: Passenger vessel. MMSI: 316011408.

Date/timePositionNaut miles runAvg speedWind from/ knotsBaromVisibWave heightAir tempDewpointWater temp
2014-Oct-25 13:22N 49°10' W 123°53'0 0.0
2014-Oct-25 12:28N 49°10' W 123°53'0 0.0
2014-Oct-25 11:33N 49°10' W 123°53'0 0.0
2014-Oct-25 10:21N 49°10' W 123°53'0 0.0
2014-Oct-25 09:27N 49°10' W 123°53'0 0.0
2014-Oct-25 08:32N 49°10' W 123°53'1 0.6
2014-Oct-25 07:33N 49°10' W 123°53'1716.8
2014-Oct-25 06:34N 49°07' W 123°28'1514.9
2014-Oct-25 05:34N 49°00' W 123°08'1212.0
2014-Oct-25 04:34N 49°04' W 123°25'1919.2
2014-Oct-25 03:34N 49°13' W 123°51'1 0.7
2014-Oct-25 02:33N 49°13' W 123°50'1919.3
2014-Oct-25 01:33N 49°05' W 123°23'1111.0
2014-Oct-25 00:33N 49°00' W 123°08'1212.4
2014-Oct-24 23:33N 49°04' W 123°26'1817.8
2014-Oct-24 22:33N 49°13' W 123°49'3 2.8
2014-Oct-24 21:33N 49°12' W 123°53'1818.2
2014-Oct-24 20:34N 49°07' W 123°26'1413.5
2014-Oct-24 19:33N 49°00' W 123°08'1212.0
2014-Oct-24 18:33N 49°04' W 123°25'1919.0
2014-Oct-24 17:33N 49°13' W 123°51'0 0.1
2014-Oct-24 16:33N 49°13' W 123°51'1918.5
2014-Oct-24 15:33N 49°06' W 123°25'1211.9
2014-Oct-24 14:31N 49°00' W 123°08'1212.7
2014-Oct-24 13:33N 49°04' W 123°26'1818.1
2014-Oct-24 12:33N 49°13' W 123°50'4 3.8
2014-Oct-24 11:31N 49°10' W 123°53'0 0.0
2014-Oct-24 10:31N 49°10' W 123°53'0 0.0
2014-Oct-24 09:24N 49°10' W 123°53'0 0.0
2014-Oct-24 08:24N 49°10' W 123°53'2 1.9
2014-Oct-24 07:33N 49°11' W 123°53'1818.0
2014-Oct-24 06:33N 49°07' W 123°27'1413.8
2014-Oct-24 05:33N 49°00' W 123°08'1312.6
2014-Oct-24 04:34N 49°04' W 123°26'1818.3
2014-Oct-24 03:33N 49°13' W 123°51'1 0.9
2014-Oct-24 02:33N 49°13' W 123°52'1918.9
2014-Oct-24 01:33N 49°06' W 123°25'1212.3
2014-Oct-24 00:34N 49°00' W 123°08'1312.6
2014-Oct-23 23:33N 49°04' W 123°26'1817.5
2014-Oct-23 22:33N 49°13' W 123°50'1 1.4
2014-Oct-23 21:33N 49°13' W 123°52'1818.2
2014-Oct-23 20:33N 49°06' W 123°26'1312.5
2014-Oct-23 19:31N 49°00' W 123°08'1212.6
2014-Oct-23 18:33N 49°04' W 123°26'1818.5
2014-Oct-23 17:33N 49°13' W 123°50'1 0.8
2014-Oct-23 16:32N 49°13' W 123°51'1818.4
2014-Oct-23 15:33N 49°06' W 123°26'1312.8
2014-Oct-23 14:31N 49°00' W 123°08'1212.4
2014-Oct-23 13:33N 49°04' W 123°25'1818.3
2014-Oct-23 12:33N 49°13' W 123°50'4 3.8
2014-Oct-23 11:30N 49°10' W 123°53'0 0.0
2014-Oct-23 10:33N 49°10' W 123°53'0 0.0
2014-Oct-23 09:29N 49°10' W 123°53'0 0.0
2014-Oct-23 08:23N 49°10' W 123°53'2 2.2
2014-Oct-23 07:33N 49°12' W 123°53'1918.6
2014-Oct-23 06:33N 49°06' W 123°26'1313.1
2014-Oct-23 05:34N 49°00' W 123°08'1110.8
2014-Oct-23 04:33N 49°03' W 123°24'2019.7
2014-Oct-23 03:33N 49°13' W 123°50'1 1.0
2014-Oct-23 02:33N 49°12' W 123°52'1919.2
2014-Oct-23 01:33N 49°06' W 123°25'1212.1
2014-Oct-23 00:34N 49°00' W 123°08'1211.6
2014-Oct-22 23:34N 49°04' W 123°25'1818.1
2014-Oct-22 22:33N 49°13' W 123°49'2 2.0
2014-Oct-22 21:33N 49°13' W 123°52'1717.6
2014-Oct-22 20:34N 49°06' W 123°27'1413.8
2014-Oct-22 19:33N 49°00' W 123°08'1212.3
2014-Oct-22 18:33N 49°04' W 123°26'1817.9
2014-Oct-22 17:33N 49°13' W 123°50'0 0.0
2014-Oct-22 16:33N 49°13' W 123°50'1818.1
2014-Oct-22 15:32N 49°06' W 123°24'1212.0
2014-Oct-22 14:33N 49°00' W 123°08'1313.1
2014-Oct-22 13:33N 49°05' W 123°27'1817.7
2014-Oct-22 12:33N 49°13' W 123°51'3 3.1
2014-Oct-22 11:30N 49°10' W 123°53'0 0.0
2014-Oct-22 10:29N 49°10' W 123°53'0 0.0
2014-Oct-22 09:29N 49°10' W 123°53'0 0.0
2014-Oct-22 08:22N 49°10' W 123°53'0 0.4
2014-Oct-22 07:34N 49°10' W 123°53'1616.0
2014-Oct-22 06:33N 49°07' W 123°29'1515.5
2014-Oct-22 05:33N 49°00' W 123°08'1111.0
2014-Oct-22 04:33N 49°03' W 123°24'1818.3
2014-Oct-22 03:33N 49°13' W 123°48'4 4.3
2014-Oct-22 02:33N 49°10' W 123°53'1716.6
2014-Oct-22 01:33N 49°07' W 123°28'1514.9
2014-Oct-22 00:33N 49°00' W 123°08'1111.5
2014-Oct-21 23:33N 49°04' W 123°25'1818.2
2014-Oct-21 22:33N 49°13' W 123°49'1 1.5
2014-Oct-21 21:33N 49°13' W 123°51'1817.7
2014-Oct-21 20:33N 49°06' W 123°26'1313.0
2014-Oct-21 19:33N 49°00' W 123°08'1212.3
2014-Oct-21 18:33N 49°04' W 123°26'1817.9
2014-Oct-21 17:33N 49°13' W 123°50'1 0.9
2014-Oct-21 16:33N 49°13' W 123°51'1818.0
2014-Oct-21 15:33N 49°06' W 123°25'1312.8
2014-Oct-21 14:34N 49°00' W 123°08'1312.6
2014-Oct-21 13:33N 49°04' W 123°26'1717.5
2014-Oct-21 12:34N 49°13' W 123°49'4 4.1
2014-Oct-21 11:32N 49°10' W 123°53'0 0.0
2014-Oct-21 10:31N 49°10' W 123°53'0 0.0
2014-Oct-21 09:31N 49°10' W 123°53'0 0.0
2014-Oct-21 08:30N 49°10' W 123°53'1 1.1
2014-Oct-21 07:33N 49°11' W 123°53'1717.5
2014-Oct-21 06:33N 49°07' W 123°27'1414.2
2014-Oct-21 05:33N 49°00' W 123°08'1110.8
2014-Oct-21 04:33N 49°03' W 123°24'1818.5
2014-Oct-21 03:33N 49°13' W 123°48'4 4.2
2014-Oct-21 02:33N 49°10' W 123°53'1716.9
2014-Oct-21 01:33N 49°07' W 123°28'1514.6
2014-Oct-21 00:33N 49°00' W 123°08'1211.6
2014-Oct-20 23:33N 49°03' W 123°25'1818.2
2014-Oct-20 22:33N 49°13' W 123°49'2 1.6
2014-Oct-20 21:33N 49°13' W 123°51'1818.2
2014-Oct-20 20:33N 49°06' W 123°26'1312.8
2014-Oct-20 19:33N 49°00' W 123°08'1212.1
2014-Oct-20 18:33N 49°04' W 123°25'1817.9
2014-Oct-20 17:33N 49°13' W 123°49'1 1.0
2014-Oct-20 16:34N 49°13' W 123°51'1918.5
2014-Oct-20 15:33N 49°05' W 123°25'1212.2
2014-Oct-20 14:33N 49°00' W 123°08'1313.3
2014-Oct-20 13:33N 49°05' W 123°27'1717.2
2014-Oct-20 12:33N 49°13' W 123°51'4 3.3
2014-Oct-20 11:30N 49°10' W 123°53'0 0.0
2014-Oct-20 10:29N 49°10' W 123°53'0 0.0
2014-Oct-20 09:29N 49°10' W 123°53'0 0.0
2014-Oct-20 08:28N 49°10' W 123°53'0 0.4
2014-Oct-20 07:34N 49°10' W 123°53'1716.6
2014-Oct-20 06:33N 49°07' W 123°28'1514.9
2014-Oct-20 05:33N 49°00' W 123°08'1111.2
2014-Oct-20 04:33N 49°03' W 123°24'1918.8
2014-Oct-20 03:33N 49°13' W 123°49'4 3.5
2014-Oct-20 02:33N 49°11' W 123°53'1716.9
2014-Oct-20 01:33N 49°07' W 123°28'1514.7
2014-Oct-20 00:33N 49°00' W 123°08'1111.1
2014-Oct-19 23:34N 49°03' W 123°24'1818.4
2014-Oct-19 22:33N 49°13' W 123°48'2 2.3
2014-Oct-19 21:34N 49°13' W 123°52'1818.0
2014-Oct-19 20:33N 49°06' W 123°26'1313.1
2014-Oct-19 19:33N 49°00' W 123°08'1312.8
2014-Oct-19 18:33N 49°04' W 123°26'1817.9
2014-Oct-19 17:33N 49°13' W 123°51'3 2.9
2014-Oct-19 16:22N 49°10' W 123°53'0 0.0
2014-Oct-19 15:28N 49°10' W 123°53'0 0.0
2014-Oct-19 14:15N 49°10' W 123°53'0 0.0
2014-Oct-19 13:33N 49°10' W 123°53'0 0.0
2014-Oct-19 12:32N 49°10' W 123°53'0 0.0
2014-Oct-19 11:32N 49°10' W 123°53'0 0.0
2014-Oct-19 10:32N 49°10' W 123°53'0 0.0
2014-Oct-19 09:31N 49°10' W 123°53'0 0.0
2014-Oct-19 08:25N 49°10' W 123°53'0 0.0
2014-Oct-19 07:24N 49°10' W 123°53'0 0.0
2014-Oct-19 06:30N 49°10' W 123°53'0 0.0
2014-Oct-19 05:23N 49°10' W 123°53'0 0.0
2014-Oct-19 04:23N 49°10' W 123°53'0 0.0
2014-Oct-19 03:29N 49°10' W 123°53'0 0.0
2014-Oct-19 02:28N 49°10' W 123°53'0 0.0
2014-Oct-19 01:28N 49°10' W 123°53'0 0.0
2014-Oct-19 00:33N 49°10' W 123°53'9 8.6
2014-Oct-18 23:34N 49°11' W 123°40'2019.8
2014-Oct-18 22:34N 49°01' W 123°15'1 1.3
2014-Oct-18 21:33N 49°00' W 123°13'1817.7
2014-Oct-18 20:33N 49°10' W 123°36'1111.4
2014-Oct-18 19:33N 49°10' W 123°53'10 9.8
2014-Oct-18 18:33N 49°11' W 123°39'1817.9
2014-Oct-18 17:33N 49°01' W 123°15'1 1.1
2014-Oct-18 16:33N 49°00' W 123°15'1818.1
2014-Oct-18 15:33N 49°10' W 123°39'10 9.7
2014-Oct-18 14:33N 49°10' W 123°53'0 0.0
2014-Oct-18 13:33N 49°10' W 123°53'0 0.0
2014-Oct-18 12:33N 49°10' W 123°53'0 0.0
2014-Oct-18 11:33N 49°10' W 123°53'0 0.0
2014-Oct-18 10:33N 49°10' W 123°53'0 0.0
2014-Oct-18 09:32N 49°10' W 123°53'0 0.0
2014-Oct-18 08:33N 49°10' W 123°53'1 0.9
2014-Oct-18 07:33N 49°11' W 123°53'1717.5
2014-Oct-18 06:33N 49°07' W 123°27'1414.2
2014-Oct-18 05:33N 49°00' W 123°08'1313.4
2014-Oct-18 04:33N 49°05' W 123°27'1818.3
2014-Oct-18 03:33N 49°12' W 123°53'2 2.4
2014-Oct-18 02:33N 49°13' W 123°49'1919.3
2014-Oct-18 01:33N 49°05' W 123°22'1010.5
2014-Oct-18 00:33N 49°00' W 123°08'1212.3
2014-Oct-17 23:34N 49°04' W 123°26'1818.1
2014-Oct-17 22:34N 49°13' W 123°50'2 2.3
2014-Oct-17 21:34N 49°12' W 123°53'1918.5
2014-Oct-17 20:33N 49°06' W 123°26'1313.3
2014-Oct-17 19:33N 49°00' W 123°08'1111.0
2014-Oct-17 18:33N 49°04' W 123°24'1918.9
2014-Oct-17 17:33N 49°13' W 123°49'3 2.8
2014-Oct-17 16:33N 49°12' W 123°53'1818.1
2014-Oct-17 15:33N 49°06' W 123°27'1413.9
2014-Oct-17 14:33N 49°00' W 123°08'1211.7
2014-Oct-17 13:33N 49°04' W 123°25'1918.6
2014-Oct-17 12:33N 49°13' W 123°50'4 3.7
2014-Oct-17 11:30N 49°10' W 123°53'0 0.0
2014-Oct-17 10:12N 49°10' W 123°53'0 0.0
2014-Oct-17 09:05N 49°10' W 123°53'0 0.0
2014-Oct-17 08:23N 49°10' W 123°53'1 1.7
2014-Oct-17 07:33N 49°11' W 123°53'1817.9
2014-Oct-17 06:33N 49°07' W 123°27'1413.9
2014-Oct-17 05:33N 49°00' W 123°08'1111.4
2014-Oct-17 04:33N 49°04' W 123°25'1918.9
2014-Oct-17 03:33N 49°13' W 123°50'2 1.9
2014-Oct-17 02:33N 49°12' W 123°53'1918.6
2014-Oct-17 01:33N 49°06' W 123°26'1313.1
2014-Oct-17 00:33N 49°00' W 123°08'1212.2
2014-Oct-16 23:33N 49°04' W 123°26'1818.2
2014-Oct-16 22:33N 49°13' W 123°50'3 2.7
2014-Oct-16 21:33N 49°12' W 123°53'1817.7
2014-Oct-16 20:33N 49°07' W 123°27'1414.3
2014-Oct-16 19:33N 49°00' W 123°08'1211.6
2014-Oct-16 18:33N 49°04' W 123°25'1918.8
2014-Oct-16 17:34N 49°13' W 123°50'2 1.5
2014-Oct-16 16:33N 49°13' W 123°52'1818.5
2014-Oct-16 15:33N 49°07' W 123°25'1313.3
2014-Oct-16 14:33N 49°00' W 123°08'1211.6
2014-Oct-16 13:34N 49°04' W 123°25'1918.7
2014-Oct-16 12:34N 49°13' W 123°50'4 4.0
2014-Oct-16 11:31N 49°10' W 123°53'0 0.0
2014-Oct-16 10:33N 49°10' W 123°53'0 0.0
2014-Oct-16 09:33N 49°10' W 123°53'0 0.0
2014-Oct-16 08:33N 49°10' W 123°53'1 0.6
2014-Oct-16 07:34N 49°10' W 123°53'1717.1
2014-Oct-16 06:34N 49°07' W 123°28'1514.5
2014-Oct-16 05:33N 49°00' W 123°08'1312.6
2014-Oct-16 04:33N 49°04' W 123°26'1918.6
2014-Oct-16 03:33N 49°12' W 123°52'2 1.9
2014-Oct-16 02:33N 49°13' W 123°49'1919.2
2014-Oct-16 01:33N 49°05' W 123°23'1110.7
2014-Oct-16 00:34N 49°00' W 123°08'1212.1
2014-Oct-15 23:33N 49°04' W 123°26'1818.2
2014-Oct-15 22:33N 49°13' W 123°50'1 1.4
2014-Oct-15 21:33N 49°13' W 123°52'1818.3
2014-Oct-15 20:33N 49°06' W 123°26'1313.2
2014-Oct-15 19:33N 49°00' W 123°08'1111.3
2014-Oct-15 18:33N 49°03' W 123°24'1918.7
2014-Oct-15 17:34N 49°13' W 123°49'3 2.9
2014-Oct-15 16:33N 49°12' W 123°53'1818.4
2014-Oct-15 15:33N 49°06' W 123°27'1413.5
2014-Oct-15 14:33N 49°00' W 123°08'1111.3
2014-Oct-15 13:34N 49°03' W 123°25'  
Track history (hours):
 
Tides and Currents Weather Stations Pressure Air Temp Water Temp Dewpoint Dewpoint Depression Visibility Wind Speed Wind Dir Waves Ship Positions

Coastal Inspiration

Last reported at 2014-Oct-25 13:22 UTC. Time now 2014-Oct-25 14:29 UTC.
Position N 49°10' W 123°53'.

Length 160 m; draft 6 m.

Type: Passenger vessel. MMSI: 316011408.

Date/timePositionNaut miles runAvg speedWind from/ knotsBaromVisibWave heightAir tempDewpointWater temp
2014-Oct-25 13:22N 49°10' W 123°53'0 0.0
2014-Oct-25 12:28N 49°10' W 123°53'0 0.0
2014-Oct-25 11:33N 49°10' W 123°53'0 0.0
2014-Oct-25 10:21N 49°10' W 123°53'0 0.0
2014-Oct-25 09:27N 49°10' W 123°53'0 0.0
2014-Oct-25 08:32N 49°10' W 123°53'1 0.6
2014-Oct-25 07:33N 49°10' W 123°53'1716.8
2014-Oct-25 06:34N 49°07' W 123°28'1514.9
2014-Oct-25 05:34N 49°00' W 123°08'1212.0
2014-Oct-25 04:34N 49°04' W 123°25'1919.2
2014-Oct-25 03:34N 49°13' W 123°51'1 0.7
2014-Oct-25 02:33N 49°13' W 123°50'1919.3
2014-Oct-25 01:33N 49°05' W 123°23'1111.0
2014-Oct-25 00:33N 49°00' W 123°08'1212.4
2014-Oct-24 23:33N 49°04' W 123°26'1817.8
2014-Oct-24 22:33N 49°13' W 123°49'3 2.8
2014-Oct-24 21:33N 49°12' W 123°53'1818.2
2014-Oct-24 20:34N 49°07' W 123°26'1413.5
2014-Oct-24 19:33N 49°00' W 123°08'1212.0
2014-Oct-24 18:33N 49°04' W 123°25'1919.0
2014-Oct-24 17:33N 49°13' W 123°51'0 0.1
2014-Oct-24 16:33N 49°13' W 123°51'1918.5
2014-Oct-24 15:33N 49°06' W 123°25'1211.9
2014-Oct-24 14:31N 49°00' W 123°08'1212.7
2014-Oct-24 13:33N 49°04' W 123°26'1818.1
2014-Oct-24 12:33N 49°13' W 123°50'4 3.8
2014-Oct-24 11:31N 49°10' W 123°53'0 0.0
2014-Oct-24 10:31N 49°10' W 123°53'0 0.0
2014-Oct-24 09:24N 49°10' W 123°53'0 0.0
2014-Oct-24 08:24N 49°10' W 123°53'2 1.9
2014-Oct-24 07:33N 49°11' W 123°53'1818.0
2014-Oct-24 06:33N 49°07' W 123°27'1413.8
2014-Oct-24 05:33N 49°00' W 123°08'1312.6
2014-Oct-24 04:34N 49°04' W 123°26'1818.3
2014-Oct-24 03:33N 49°13' W 123°51'1 0.9
2014-Oct-24 02:33N 49°13' W 123°52'1918.9
2014-Oct-24 01:33N 49°06' W 123°25'1212.3
2014-Oct-24 00:34N 49°00' W 123°08'1312.6
2014-Oct-23 23:33N 49°04' W 123°26'1817.5
2014-Oct-23 22:33N 49°13' W 123°50'1 1.4
2014-Oct-23 21:33N 49°13' W 123°52'1818.2
2014-Oct-23 20:33N 49°06' W 123°26'1312.5
2014-Oct-23 19:31N 49°00' W 123°08'1212.6
2014-Oct-23 18:33N 49°04' W 123°26'1818.5
2014-Oct-23 17:33N 49°13' W 123°50'1 0.8
2014-Oct-23 16:32N 49°13' W 123°51'1818.4
2014-Oct-23 15:33N 49°06' W 123°26'1312.8
2014-Oct-23 14:31N 49°00' W 123°08'1212.4
2014-Oct-23 13:33N 49°04' W 123°25'1818.3
2014-Oct-23 12:33N 49°13' W 123°50'4 3.8
2014-Oct-23 11:30N 49°10' W 123°53'0 0.0
2014-Oct-23 10:33N 49°10' W 123°53'0 0.0
2014-Oct-23 09:29N 49°10' W 123°53'0 0.0
2014-Oct-23 08:23N 49°10' W 123°53'2 2.2
2014-Oct-23 07:33N 49°12' W 123°53'1918.6
2014-Oct-23 06:33N 49°06' W 123°26'1313.1
2014-Oct-23 05:34N 49°00' W 123°08'1110.8
2014-Oct-23 04:33N 49°03' W 123°24'2019.7
2014-Oct-23 03:33N 49°13' W 123°50'1 1.0
2014-Oct-23 02:33N 49°12' W 123°52'1919.2
2014-Oct-23 01:33N 49°06' W 123°25'1212.1
2014-Oct-23 00:34N 49°00' W 123°08'1211.6
2014-Oct-22 23:34N 49°04' W 123°25'1818.1
2014-Oct-22 22:33N 49°13' W 123°49'2 2.0
2014-Oct-22 21:33N 49°13' W 123°52'1717.6
2014-Oct-22 20:34N 49°06' W 123°27'1413.8
2014-Oct-22 19:33N 49°00' W 123°08'1212.3
2014-Oct-22 18:33N 49°04' W 123°26'1817.9
2014-Oct-22 17:33N 49°13' W 123°50'0 0.0
2014-Oct-22 16:33N 49°13' W 123°50'1818.1
2014-Oct-22 15:32N 49°06' W 123°24'1212.0
2014-Oct-22 14:33N 49°00' W 123°08'1313.1
2014-Oct-22 13:33N 49°05' W 123°27'1817.7
2014-Oct-22 12:33N 49°13' W 123°51'3 3.1
2014-Oct-22 11:30N 49°10' W 123°53'0 0.0
2014-Oct-22 10:29N 49°10' W 123°53'0 0.0
2014-Oct-22 09:29N 49°10' W 123°53'0 0.0
2014-Oct-22 08:22N 49°10' W 123°53'0 0.4
2014-Oct-22 07:34N 49°10' W 123°53'1616.0
2014-Oct-22 06:33N 49°07' W 123°29'1515.5
2014-Oct-22 05:33N 49°00' W 123°08'1111.0
2014-Oct-22 04:33N 49°03' W 123°24'1818.3
2014-Oct-22 03:33N 49°13' W 123°48'4 4.3
2014-Oct-22 02:33N 49°10' W 123°53'1716.6
2014-Oct-22 01:33N 49°07' W 123°28'1514.9
2014-Oct-22 00:33N 49°00' W 123°08'1111.5
2014-Oct-21 23:33N 49°04' W 123°25'1818.2
2014-Oct-21 22:33N 49°13' W 123°49'1 1.5
2014-Oct-21 21:33N 49°13' W 123°51'1817.7
2014-Oct-21 20:33N 49°06' W 123°26'1313.0
2014-Oct-21 19:33N 49°00' W 123°08'1212.3
2014-Oct-21 18:33N 49°04' W 123°26'1817.9
2014-Oct-21 17:33N 49°13' W 123°50'1 0.9
2014-Oct-21 16:33N 49°13' W 123°51'1818.0
2014-Oct-21 15:33N 49°06' W 123°25'1312.8
2014-Oct-21 14:34N 49°00' W 123°08'1312.6
2014-Oct-21 13:33N 49°04' W 123°26'1717.5
2014-Oct-21 12:34N 49°13' W 123°49'4 4.1
2014-Oct-21 11:32N 49°10' W 123°53'0 0.0
2014-Oct-21 10:31N 49°10' W 123°53'0 0.0
2014-Oct-21 09:31N 49°10' W 123°53'0 0.0
2014-Oct-21 08:30N 49°10' W 123°53'1 1.1
2014-Oct-21 07:33N 49°11' W 123°53'1717.5
2014-Oct-21 06:33N 49°07' W 123°27'1414.2
2014-Oct-21 05:33N 49°00' W 123°08'1110.8
2014-Oct-21 04:33N 49°03' W 123°24'1818.5
2014-Oct-21 03:33N 49°13' W 123°48'4 4.2
2014-Oct-21 02:33N 49°10' W 123°53'1716.9
2014-Oct-21 01:33N 49°07' W 123°28'1514.6
2014-Oct-21 00:33N 49°00' W 123°08'1211.6
2014-Oct-20 23:33N 49°03' W 123°25'1818.2
2014-Oct-20 22:33N 49°13' W 123°49'2 1.6
2014-Oct-20 21:33N 49°13' W 123°51'1818.2
2014-Oct-20 20:33N 49°06' W 123°26'1312.8
2014-Oct-20 19:33N 49°00' W 123°08'1212.1
2014-Oct-20 18:33N 49°04' W 123°25'1817.9
2014-Oct-20 17:33N 49°13' W 123°49'1 1.0
2014-Oct-20 16:34N 49°13' W 123°51'1918.5
2014-Oct-20 15:33N 49°05' W 123°25'1212.2
2014-Oct-20 14:33N 49°00' W 123°08'1313.3
2014-Oct-20 13:33N 49°05' W 123°27'1717.2
2014-Oct-20 12:33N 49°13' W 123°51'4 3.3
2014-Oct-20 11:30N 49°10' W 123°53'0 0.0
2014-Oct-20 10:29N 49°10' W 123°53'0 0.0
2014-Oct-20 09:29N 49°10' W 123°53'0 0.0
2014-Oct-20 08:28N 49°10' W 123°53'0 0.4
2014-Oct-20 07:34N 49°10' W 123°53'1716.6
2014-Oct-20 06:33N 49°07' W 123°28'1514.9
2014-Oct-20 05:33N 49°00' W 123°08'1111.2
2014-Oct-20 04:33N 49°03' W 123°24'1918.8
2014-Oct-20 03:33N 49°13' W 123°49'4 3.5
2014-Oct-20 02:33N 49°11' W 123°53'1716.9
2014-Oct-20 01:33N 49°07' W 123°28'1514.7
2014-Oct-20 00:33N 49°00' W 123°08'1111.1
2014-Oct-19 23:34N 49°03' W 123°24'1818.4
2014-Oct-19 22:33N 49°13' W 123°48'2 2.3
2014-Oct-19 21:34N 49°13' W 123°52'1818.0
2014-Oct-19 20:33N 49°06' W 123°26'1313.1
2014-Oct-19 19:33N 49°00' W 123°08'1312.8
2014-Oct-19 18:33N 49°04' W 123°26'1817.9
2014-Oct-19 17:33N 49°13' W 123°51'3 2.9
2014-Oct-19 16:22N 49°10' W 123°53'0 0.0
2014-Oct-19 15:28N 49°10' W 123°53'0 0.0
2014-Oct-19 14:15N 49°10' W 123°53'0 0.0
2014-Oct-19 13:33N 49°10' W 123°53'0 0.0
2014-Oct-19 12:32N 49°10' W 123°53'0 0.0
2014-Oct-19 11:32N 49°10' W 123°53'0 0.0
2014-Oct-19 10:32N 49°10' W 123°53'0 0.0
2014-Oct-19 09:31N 49°10' W 123°53'0 0.0
2014-Oct-19 08:25N 49°10' W 123°53'0 0.0
2014-Oct-19 07:24N 49°10' W 123°53'0 0.0
2014-Oct-19 06:30N 49°10' W 123°53'0 0.0
2014-Oct-19 05:23N 49°10' W 123°53'0 0.0
2014-Oct-19 04:23N 49°10' W 123°53'0 0.0
2014-Oct-19 03:29N 49°10' W 123°53'0 0.0
2014-Oct-19 02:28N 49°10' W 123°53'0 0.0
2014-Oct-19 01:28N 49°10' W 123°53'0 0.0
2014-Oct-19 00:33N 49°10' W 123°53'9 8.6
2014-Oct-18 23:34N 49°11' W 123°40'2019.8
2014-Oct-18 22:34N 49°01' W 123°15'1 1.3
2014-Oct-18 21:33N 49°00' W 123°13'1817.7
2014-Oct-18 20:33N 49°10' W 123°36'1111.4
2014-Oct-18 19:33N 49°10' W 123°53'10 9.8
2014-Oct-18 18:33N 49°11' W 123°39'1817.9
2014-Oct-18 17:33N 49°01' W 123°15'1 1.1
2014-Oct-18 16:33N 49°00' W 123°15'1818.1
2014-Oct-18 15:33N 49°10' W 123°39'10 9.7
2014-Oct-18 14:33N 49°10' W 123°53'0 0.0
2014-Oct-18 13:33N 49°10' W 123°53'0 0.0
2014-Oct-18 12:33N 49°10' W 123°53'0 0.0
2014-Oct-18 11:33N 49°10' W 123°53'0 0.0
2014-Oct-18 10:33N 49°10' W 123°53'0 0.0
2014-Oct-18 09:32N 49°10' W 123°53'0 0.0
2014-Oct-18 08:33N 49°10' W 123°53'1 0.9
2014-Oct-18 07:33N 49°11' W 123°53'1717.5
2014-Oct-18 06:33N 49°07' W 123°27'1414.2
2014-Oct-18 05:33N 49°00' W 123°08'1313.4
2014-Oct-18 04:33N 49°05' W 123°27'1818.3
2014-Oct-18 03:33N 49°12' W 123°53'2 2.4
2014-Oct-18 02:33N 49°13' W 123°49'1919.3
2014-Oct-18 01:33N 49°05' W 123°22'1010.5
2014-Oct-18 00:33N 49°00' W 123°08'1212.3
2014-Oct-17 23:34N 49°04' W 123°26'1818.1
2014-Oct-17 22:34N 49°13' W 123°50'2 2.3
2014-Oct-17 21:34N 49°12' W 123°53'1918.5
2014-Oct-17 20:33N 49°06' W 123°26'1313.3
2014-Oct-17 19:33N 49°00' W 123°08'1111.0
2014-Oct-17 18:33N 49°04' W 123°24'1918.9
2014-Oct-17 17:33N 49°13' W 123°49'3 2.8
2014-Oct-17 16:33N 49°12' W 123°53'1818.1
2014-Oct-17 15:33N 49°06' W 123°27'1413.9
2014-Oct-17 14:33N 49°00' W 123°08'1211.7
2014-Oct-17 13:33N 49°04' W 123°25'1918.6
2014-Oct-17 12:33N 49°13' W 123°50'4 3.7
2014-Oct-17 11:30N 49°10' W 123°53'0 0.0
2014-Oct-17 10:12N 49°10' W 123°53'0 0.0
2014-Oct-17 09:05N 49°10' W 123°53'0 0.0
2014-Oct-17 08:23N 49°10' W 123°53'1 1.7
2014-Oct-17 07:33N 49°11' W 123°53'1817.9
2014-Oct-17 06:33N 49°07' W 123°27'1413.9
2014-Oct-17 05:33N 49°00' W 123°08'1111.4
2014-Oct-17 04:33N 49°04' W 123°25'1918.9
2014-Oct-17 03:33N 49°13' W 123°50'2 1.9
2014-Oct-17 02:33N 49°12' W 123°53'1918.6
2014-Oct-17 01:33N 49°06' W 123°26'1313.1
2014-Oct-17 00:33N 49°00' W 123°08'1212.2
2014-Oct-16 23:33N 49°04' W 123°26'1818.2
2014-Oct-16 22:33N 49°13' W 123°50'3 2.7
2014-Oct-16 21:33N 49°12' W 123°53'1817.7
2014-Oct-16 20:33N 49°07' W 123°27'1414.3
2014-Oct-16 19:33N 49°00' W 123°08'1211.6
2014-Oct-16 18:33N 49°04' W 123°25'1918.8
2014-Oct-16 17:34N 49°13' W 123°50'2 1.5
2014-Oct-16 16:33N 49°13' W 123°52'1818.5
2014-Oct-16 15:33N 49°07' W 123°25'1313.3
2014-Oct-16 14:33N 49°00' W 123°08'1211.6
2014-Oct-16 13:34N 49°04' W 123°25'1918.7
2014-Oct-16 12:34N 49°13' W 123°50'4 4.0
2014-Oct-16 11:31N 49°10' W 123°53'0 0.0
2014-Oct-16 10:33N 49°10' W 123°53'0 0.0
2014-Oct-16 09:33N 49°10' W 123°53'0 0.0
2014-Oct-16 08:33N 49°10' W 123°53'1 0.6
2014-Oct-16 07:34N 49°10' W 123°53'1717.1
2014-Oct-16 06:34N 49°07' W 123°28'1514.5
2014-Oct-16 05:33N 49°00' W 123°08'1312.6
2014-Oct-16 04:33N 49°04' W 123°26'1918.6
2014-Oct-16 03:33N 49°12' W 123°52'2 1.9
2014-Oct-16 02:33N 49°13' W 123°49'1919.2
2014-Oct-16 01:33N 49°05' W 123°23'1110.7
2014-Oct-16 00:34N 49°00' W 123°08'1212.1
2014-Oct-15 23:33N 49°04' W 123°26'1818.2
2014-Oct-15 22:33N 49°13' W 123°50'1 1.4
2014-Oct-15 21:33N 49°13' W 123°52'1818.3
2014-Oct-15 20:33N 49°06' W 123°26'1313.2
2014-Oct-15 19:33N 49°00' W 123°08'1111.3
2014-Oct-15 18:33N 49°03' W 123°24'1918.7
2014-Oct-15 17:34N 49°13' W 123°49'3 2.9
2014-Oct-15 16:33N 49°12' W 123°53'1818.4
2014-Oct-15 15:33N 49°06' W 123°27'1413.5
2014-Oct-15 14:33N 49°00' W 123°08'1111.3
2014-Oct-15 13:34N 49°03' W 123°25'  

Dump ship's entire track history